Time;durP1;ratioP1;P1;durP2;ratioP2;P2;SDS_P1;SDS_P2;PMS_P1;PMS_P2;Temp;Humidity;BMP_temperature;BMP_pressure;BME280_temperature;BME280_humidity;BME280_pressure;Samples;Min_cycle;Max_cycle;Signal;HPM_P1;HPM_P2
2023/05/07 00:00:09;;;;;;;5.45;3.78;;;15.00;1.00;;;;;;7370590;19;20061;-72
2023/05/07 00:02:40;;;;;;;4.90;3.88;;;15.00;1.00;;;;;;7372518;19;20819;-72
2023/05/07 00:05:13;;;;;;;5.15;4.07;;;15.00;1.00;;;;;;7370644;19;20018;-72
2023/05/07 00:07:43;;;;;;;7.13;4.03;;;15.00;1.00;;;;;;7394731;19;20014;-73
2023/05/07 00:10:14;;;;;;;4.50;3.38;;;15.00;1.00;;;;;;7368519;19;20010;-73
2023/05/07 00:12:44;;;;;;;4.82;3.58;;;15.00;1.00;;;;;;7371509;19;20025;-73
2023/05/07 00:15:14;;;;;;;5.35;3.83;;;14.90;1.00;;;;;;7369772;19;20479;-73
2023/05/07 00:17:44;;;;;;;5.07;3.80;;;14.80;1.00;;;;;;7373232;19;20380;-73
2023/05/07 00:20:17;;;;;;;6.88;4.10;;;14.60;1.00;;;;;;7370151;19;20383;-72
2023/05/07 00:22:46;;;;;;;4.20;3.35;;;14.50;1.00;;;;;;7393071;19;20340;-73
2023/05/07 00:25:16;;;;;;;4.97;4.07;;;14.60;1.00;;;;;;7370190;19;20041;-73
2023/05/07 00:27:46;;;;;;;5.28;3.50;;;14.60;1.00;;;;;;7372238;19;20106;-73
2023/05/07 00:30:17;;;;;;;5.32;3.80;;;14.60;1.00;;;;;;7369875;19;20401;-73
2023/05/07 00:32:48;;;;;;;4.47;3.75;;;14.60;1.00;;;;;;7371803;19;20018;-73
2023/05/07 00:35:21;;;;;;;4.65;3.88;;;14.50;1.00;;;;;;7370107;19;20010;-73
2023/05/07 00:37:51;;;;;;;6.13;4.20;;;14.40;1.00;;;;;;7393320;19;20355;-74
2023/05/07 00:40:21;;;;;;;5.32;4.20;;;14.40;1.00;;;;;;7368556;19;20010;-73
2023/05/07 00:42:56;;;;;;;6.72;4.10;;;14.40;1.00;;;;;;7369625;19;20015;-72
2023/05/07 00:45:29;;;;;;;5.07;4.00;;;14.30;1.00;;;;;;7368233;19;20031;-73
2023/05/07 00:48:02;;;;;;;8.80;4.38;;;14.30;1.00;;;;;;7369929;19;20024;-73
2023/05/07 00:50:35;;;;;;;4.28;3.88;;;14.30;1.00;;;;;;7366369;19;20478;-72
2023/05/07 00:53:06;;;;;;;6.10;3.97;;;14.20;1.00;;;;;;7369297;19;20053;-73
2023/05/07 00:55:37;;;;;;;4.43;3.92;;;14.20;1.00;;;;;;7390544;19;20027;-73
2023/05/07 00:58:08;;;;;;;4.28;3.67;;;14.20;1.00;;;;;;7370479;19;20014;-73
2023/05/07 01:00:38;;;;;;;6.50;3.60;;;14.20;1.00;;;;;;7368587;19;20010;-73
2023/05/07 01:03:08;;;;;;;6.63;3.65;;;14.30;1.00;;;;;;7368820;19;20018;-72
2023/05/07 01:05:42;;;;;;;4.75;4.03;;;14.30;1.00;;;;;;7369009;19;20025;-72
2023/05/07 01:08:12;;;;;;;5.60;3.90;;;14.30;1.00;;;;;;7370389;19;20010;-73
2023/05/07 01:10:42;;;;;;;5.15;3.53;;;14.40;1.00;;;;;;7389167;19;20023;-73
2023/05/07 01:13:13;;;;;;;4.07;3.20;;;14.40;1.00;;;;;;7368723;19;20507;-72
2023/05/07 01:15:44;;;;;;;7.72;3.60;;;14.40;1.00;;;;;;7368883;19;20023;-73
2023/05/07 01:18:13;;;;;;;4.50;3.30;;;14.30;1.00;;;;;;7367941;19;20097;-73
2023/05/07 01:20:46;;;;;;;5.53;3.03;;;14.20;1.00;;;;;;7368086;19;20386;-72
2023/05/07 01:23:20;;;;;;;3.65;2.92;;;14.20;1.00;;;;;;7368666;19;20017;-73
2023/05/07 01:25:54;;;;;;;3.90;3.38;;;14.20;1.00;;;;;;7391348;19;20014;-73
2023/05/07 01:28:24;;;;;;;3.65;2.97;;;14.20;1.00;;;;;;7370019;19;20011;-70
2023/05/07 01:31:05;;;;;;;3.05;2.75;;;14.20;1.00;;;;;;7368340;19;20014;-72
2023/05/07 01:33:38;;;;;;;5.82;3.20;;;14.10;1.00;;;;;;7366151;19;20794;-73
2023/05/07 01:36:10;;;;;;;4.57;3.15;;;14.10;1.00;;;;;;7370376;19;20101;-72
2023/05/07 01:38:44;;;;;;;6.22;3.15;;;14.20;1.00;;;;;;7368687;19;20007;-73
2023/05/07 01:41:14;;;;;;;5.07;3.53;;;14.10;1.00;;;;;;7367437;19;20367;-73
2023/05/07 01:43:45;;;;;;;3.67;3.38;;;14.20;1.00;;;;;;7387954;19;20018;-72
2023/05/07 01:46:16;;;;;;;3.95;3.08;;;14.30;1.00;;;;;;7368990;19;20013;-73
2023/05/07 01:48:47;;;;;;;3.58;3.03;;;14.30;1.00;;;;;;7367744;19;20007;-73
2023/05/07 01:51:17;;;;;;;5.07;3.35;;;14.20;1.00;;;;;;7374349;19;20013;-73
2023/05/07 01:53:50;;;;;;;6.78;3.17;;;14.30;1.00;;;;;;7372285;19;20022;-72
2023/05/07 01:56:21;;;;;;;5.15;3.13;;;14.30;1.00;;;;;;7374317;19;20010;-73
2023/05/07 01:58:51;;;;;;;3.72;2.92;;;14.20;1.00;;;;;;7392302;19;20007;-72
2023/05/07 02:01:21;;;;;;;3.85;3.08;;;14.20;1.00;;;;;;7370657;19;20028;-71
2023/05/07 02:03:52;;;;;;;6.50;3.67;;;14.20;1.00;;;;;;7372115;19;20014;-72
2023/05/07 02:06:22;;;;;;;3.78;3.13;;;14.10;1.00;;;;;;7376504;19;20675;-71
2023/05/07 02:08:54;;;;;;;4.78;3.28;;;14.10;1.00;;;;;;7375194;19;20864;-73
2023/05/07 02:11:25;;;;;;;5.72;3.53;;;14.00;1.00;;;;;;7375691;19;20028;-72
2023/05/07 02:13:55;;;;;;;5.63;3.30;;;14.00;1.00;;;;;;7395528;19;20015;-72
2023/05/07 02:16:25;;;;;;;3.90;3.10;;;14.00;1.00;;;;;;7375753;19;20010;-72
2023/05/07 02:18:55;;;;;;;5.00;2.95;;;14.00;1.00;;;;;;7373737;19;20091;-72
2023/05/07 02:21:25;;;;;;;4.00;3.35;;;14.00;1.00;;;;;;7375390;19;20010;-73
2023/05/07 02:23:57;;;;;;;4.95;3.40;;;14.00;1.00;;;;;;7372445;19;20489;-73
2023/05/07 02:26:27;;;;;;;3.70;2.63;;;14.00;1.00;;;;;;7375509;19;20479;-73
2023/05/07 02:28:57;;;;;;;3.35;2.97;;;14.00;1.00;;;;;;7396829;19;20002;-72
2023/05/07 02:31:27;;;;;;;5.85;3.05;;;14.00;1.00;;;;;;7374825;19;20003;-73
2023/05/07 02:33:57;;;;;;;4.22;3.13;;;14.00;1.00;;;;;;7370604;19;20758;-72
2023/05/07 02:36:27;;;;;;;4.65;3.22;;;13.90;1.00;;;;;;7374851;19;20007;-73
2023/05/07 02:39:00;;;;;;;7.28;3.15;;;13.90;1.00;;;;;;7374164;19;20034;-72
2023/05/07 02:41:29;;;;;;;5.22;3.35;;;13.90;1.00;;;;;;7374596;19;20376;-73
2023/05/07 02:43:59;;;;;;;3.80;3.38;;;13.80;1.00;;;;;;7391994;19;20006;-71
2023/05/07 02:46:29;;;;;;;6.65;2.90;;;13.60;1.00;;;;;;7375040;19;20017;-72
2023/05/07 02:48:59;;;;;;;3.97;3.10;;;13.60;2.10;;;;;;7372624;19;20010;-73
2023/05/07 02:51:30;;;;;;;6.10;3.35;;;13.60;2.10;;;;;;7374950;19;20033;-73
2023/05/07 02:54:03;;;;;;;4.10;2.92;;;13.50;1.50;;;;;;7371493;19;20006;-73
2023/05/07 02:56:33;;;;;;;3.70;3.13;;;13.50;2.30;;;;;;7374187;19;20010;-73
2023/05/07 02:59:03;;;;;;;4.15;3.30;;;13.40;2.60;;;;;;7387576;19;20014;-72
2023/05/07 03:01:33;;;;;;;4.00;3.35;;;13.30;2.80;;;;;;7395777;19;20041;-72
2023/05/07 03:04:03;;;;;;;5.22;3.72;;;13.30;4.30;;;;;;7370597;19;20084;-72
2023/05/07 03:06:33;;;;;;;5.32;3.30;;;13.20;4.40;;;;;;7373818;19;20021;-72
2023/05/07 03:09:06;;;;;;;5.57;3.75;;;13.20;5.60;;;;;;7373223;19;20040;-71
2023/05/07 03:11:36;;;;;;;5.88;3.20;;;13.10;6.60;;;;;;7373127;19;20090;-73
2023/05/07 03:14:06;;;;;;;3.83;3.35;;;13.10;6.80;;;;;;7371738;19;20019;-72
2023/05/07 03:16:36;;;;;;;6.38;3.03;;;13.10;7.20;;;;;;7396194;19;20090;-72
2023/05/07 03:19:06;;;;;;;7.07;3.50;;;13.10;8.20;;;;;;7372709;19;20466;-72
2023/05/07 03:21:36;;;;;;;3.78;3.10;;;13.00;9.60;;;;;;7371827;19;20006;-72
2023/05/07 03:24:09;;;;;;;4.03;3.30;;;13.00;8.70;;;;;;7370896;19;20484;-73
2023/05/07 03:26:39;;;;;;;5.57;3.80;;;13.00;9.10;;;;;;7372249;19;20006;-72
2023/05/07 03:29:09;;;;;;;3.90;3.50;;;13.00;9.50;;;;;;7372802;19;20016;-72
2023/05/07 03:31:39;;;;;;;4.85;3.70;;;13.00;9.80;;;;;;7394349;19;20010;-72
2023/05/07 03:34:09;;;;;;;6.00;3.78;;;13.00;9.80;;;;;;7370017;19;20015;-73
2023/05/07 03:36:38;;;;;;;6.82;4.03;;;12.90;10.90;;;;;;7372493;19;20014;-73
2023/05/07 03:39:11;;;;;;;7.57;4.05;;;12.80;10.30;;;;;;7372227;19;20014;-73
2023/05/07 03:41:41;;;;;;;4.78;3.78;;;12.80;11.30;;;;;;7370490;19;20018;-73
2023/05/07 03:44:11;;;;;;;6.18;4.00;;;12.70;12.30;;;;;;7370877;19;20013;-72
2023/05/07 03:46:41;;;;;;;5.78;3.55;;;12.70;13.00;;;;;;7393088;19;20374;-73
2023/05/07 03:49:10;;;;;;;5.85;3.67;;;12.80;12.00;;;;;;7371202;19;20515;-73
2023/05/07 03:51:40;;;;;;;5.40;3.38;;;12.80;12.30;;;;;;7371895;19;20138;-73
2023/05/07 03:54:13;;;;;;;7.47;4.28;;;12.80;12.70;;;;;;7370503;19;20015;-73
2023/05/07 03:56:43;;;;;;;4.90;3.75;;;12.80;12.50;;;;;;7371262;19;20006;-73
2023/05/07 03:59:13;;;;;;;5.80;3.97;;;12.90;11.80;;;;;;7371226;19;20021;-73
2023/05/07 04:01:42;;;;;;;4.47;3.95;;;12.90;11.10;;;;;;7393569;19;20016;-73
2023/05/07 04:04:12;;;;;;;4.20;3.72;;;12.90;9.80;;;;;;7369271;19;20018;-72
2023/05/07 04:06:42;;;;;;;4.50;3.67;;;13.00;8.80;;;;;;7370342;19;20010;-73
2023/05/07 04:09:15;;;;;;;6.43;4.18;;;13.00;8.30;;;;;;7371429;19;20015;-73
2023/05/07 04:11:45;;;;;;;5.72;3.38;;;13.10;8.10;;;;;;7371041;19;20026;-73
2023/05/07 04:14:15;;;;;;;4.80;3.53;;;13.10;6.90;;;;;;7369437;19;20042;-73
2023/05/07 04:16:44;;;;;;;4.07;3.40;;;13.20;6.20;;;;;;7393271;19;20017;-73
2023/05/07 04:19:14;;;;;;;6.88;3.53;;;13.30;5.30;;;;;;7370564;19;20503;-72
2023/05/07 04:21:45;;;;;;;4.20;3.58;;;13.30;5.00;;;;;;7370802;19;20103;-72
2023/05/07 04:24:18;;;;;;;4.70;3.28;;;13.40;5.00;;;;;;7367357;19;20002;-72
2023/05/07 04:26:47;;;;;;;5.18;3.13;;;13.50;2.70;;;;;;7370620;19;20026;-72
2023/05/07 04:29:17;;;;;;;3.20;2.80;;;13.40;1.90;;;;;;7370285;19;20006;-72
2023/05/07 04:31:47;;;;;;;3.47;2.97;;;13.50;2.90;;;;;;7392857;19;20030;-72
2023/05/07 04:34:17;;;;;;;4.95;3.22;;;13.60;1.90;;;;;;7369102;19;20013;-72
2023/05/07 04:36:47;;;;;;;4.68;3.45;;;13.70;2.80;;;;;;7369132;19;20010;-72
2023/05/07 04:39:20;;;;;;;4.78;3.30;;;13.60;1.50;;;;;;7370442;19;20099;-72
2023/05/07 04:41:50;;;;;;;3.35;3.05;;;13.50;2.30;;;;;;7370776;19;20010;-72
2023/05/07 04:44:20;;;;;;;4.63;3.03;;;13.80;2.50;;;;;;7369285;19;20377;-73
2023/05/07 04:46:49;;;;;;;4.53;3.35;;;14.10;1.00;;;;;;7391387;19;20454;-72
2023/05/07 04:49:19;;;;;;;4.82;3.92;;;14.10;1.00;;;;;;7369666;19;20077;-72
2023/05/07 04:51:49;;;;;;;3.35;3.03;;;14.60;1.00;;;;;;7370174;19;20029;-73
2023/05/07 04:54:22;;;;;;;4.38;3.17;;;15.40;1.00;;;;;;7369176;19;20034;-72
2023/05/07 04:56:52;;;;;;;4.10;3.22;;;16.30;1.00;;;;;;7370327;19;20471;-73
2023/05/07 04:59:22;;;;;;;4.75;3.22;;;17.50;1.00;;;;;;7376601;19;20006;-73
2023/05/07 05:01:52;;;;;;;4.03;2.90;;;16.80;1.00;;;;;;7400235;19;20471;-72
2023/05/07 05:04:22;;;;;;;5.38;3.95;;;16.30;1.00;;;;;;7374292;19;20017;-69
2023/05/07 05:06:52;;;;;;;3.35;3.05;;;15.80;1.00;;;;;;7369760;19;20011;-72
2023/05/07 05:09:24;;;;;;;5.15;3.40;;;15.60;1.00;;;;;;7368930;19;20022;-72
2023/05/07 05:11:54;;;;;;;3.67;3.10;;;15.20;1.00;;;;;;7369872;19;20442;-72
2023/05/07 05:14:24;;;;;;;5.15;3.33;;;14.90;1.00;;;;;;7368120;19;20019;-73
2023/05/07 05:16:54;;;;;;;3.72;3.25;;;14.90;1.00;;;;;;7392217;19;20384;-72
2023/05/07 05:19:24;;;;;;;5.50;3.20;;;14.80;1.00;;;;;;7368707;19;20007;-73
2023/05/07 05:21:54;;;;;;;4.93;3.25;;;15.10;1.00;;;;;;7369642;19;20003;-72
2023/05/07 05:24:27;;;;;;;4.32;3.25;;;15.10;1.00;;;;;;7367532;19;20008;-72
2023/05/07 05:26:57;;;;;;;4.40;3.65;;;15.00;1.00;;;;;;7368237;19;20021;-72
2023/05/07 05:29:27;;;;;;;12.82;3.15;;;14.90;1.00;;;;;;7368355;19;20010;-73
2023/05/07 05:31:57;;;;;;;4.50;3.40;;;15.20;1.00;;;;;;7390708;19;20013;-72
2023/05/07 05:34:27;;;;;;;4.45;3.40;;;17.00;1.00;;;;;;7366995;19;20006;-73
2023/05/07 05:36:57;;;;;;;4.32;3.10;;;19.20;1.00;;;;;;7369274;19;20066;-72
2023/05/07 05:39:29;;;;;;;4.10;2.92;;;20.00;1.00;;;;;;7367627;19;20007;-73
2023/05/07 05:41:59;;;;;;;5.10;3.30;;;20.30;1.00;;;;;;7369757;19;20010;-73
2023/05/07 05:44:29;;;;;;;7.78;3.28;;;19.80;1.00;;;;;;7366975;19;20030;-74
2023/05/07 05:46:59;;;;;;;3.45;3.05;;;19.20;1.00;;;;;;7390575;19;20018;-73
2023/05/07 05:49:29;;;;;;;4.80;3.10;;;18.00;1.00;;;;;;7368275;19;20006;-73
2023/05/07 05:51:59;;;;;;;4.95;3.25;;;17.10;1.00;;;;;;7368764;19;20490;-73
2023/05/07 05:54:32;;;;;;;5.72;3.00;;;16.90;1.00;;;;;;7368047;19;20083;-72
2023/05/07 05:57:03;;;;;;;8.68;3.00;;;16.70;1.00;;;;;;7369879;19;20048;-72
2023/05/07 05:59:33;;;;;;;4.63;2.97;;;16.40;1.00;;;;;;7367912;19;20577;-73
2023/05/07 06:02:03;;;;;;;4.00;2.78;;;16.40;1.00;;;;;;7376328;19;20471;-72
2023/05/07 06:04:33;;;;;;;3.40;2.60;;;16.70;1.00;;;;;;7388689;19;20458;-72
2023/05/07 06:07:03;;;;;;;4.75;2.83;;;16.90;1.00;;;;;;7366922;19;20010;-73
2023/05/07 06:09:36;;;;;;;3.28;2.70;;;17.00;1.00;;;;;;7366029;19;20482;-74
2023/05/07 06:12:06;;;;;;;3.75;2.55;;;16.70;1.00;;;;;;7368044;19;20525;-72
2023/05/07 06:14:36;;;;;;;3.15;2.38;;;16.90;1.00;;;;;;7367205;19;20070;-73
2023/05/07 06:17:06;;;;;;;4.90;2.47;;;16.90;1.00;;;;;;7368891;19;20010;-73
2023/05/07 06:19:36;;;;;;;2.50;2.30;;;17.20;1.00;;;;;;7387464;19;20014;-74
2023/05/07 06:22:06;;;;;;;4.30;2.50;;;17.50;1.00;;;;;;7366894;19;20011;-74
2023/05/07 06:24:38;;;;;;;3.13;1.92;;;18.50;1.00;;;;;;7366014;19;20102;-73
2023/05/07 06:27:08;;;;;;;3.35;2.63;;;18.20;1.00;;;;;;7368239;19;20009;-73
2023/05/07 06:29:38;;;;;;;5.55;2.58;;;17.60;1.00;;;;;;7364833;19;20085;-72
2023/05/07 06:32:12;;;;;;;2.80;2.30;;;17.00;1.00;;;;;;7366971;19;20062;-71
2023/05/07 06:34:42;;;;;;;2.90;2.30;;;17.00;1.00;;;;;;7387258;19;20032;-72
2023/05/07 06:37:12;;;;;;;2.20;2.00;;;17.30;1.00;;;;;;7368047;19;20262;-74
2023/05/07 06:39:44;;;;;;;3.25;2.10;;;17.90;1.00;;;;;;7364331;19;20379;-73
2023/05/07 06:42:14;;;;;;;2.70;2.30;;;17.50;1.00;;;;;;7367351;19;20078;-74
2023/05/07 06:44:44;;;;;;;5.97;2.30;;;18.20;1.00;;;;;;7365496;19;20011;-73
2023/05/07 06:47:14;;;;;;;3.20;1.92;;;18.50;1.00;;;;;;7368771;19;21951;-73
2023/05/07 06:49:45;;;;;;;4.07;2.15;;;18.50;1.00;;;;;;7394790;19;20088;-73
2023/05/07 06:52:15;;;;;;;3.58;2.00;;;18.20;1.00;;;;;;7373112;19;20010;-72
2023/05/07 06:54:47;;;;;;;3.40;2.05;;;18.40;1.00;;;;;;7371588;19;20006;-73
2023/05/07 06:57:17;;;;;;;3.72;2.17;;;18.80;1.00;;;;;;7375377;19;20455;-72
2023/05/07 06:59:47;;;;;;;5.82;2.45;;;19.10;1.00;;;;;;7372642;19;20569;-73
2023/05/07 07:02:17;;;;;;;2.78;2.00;;;18.70;1.00;;;;;;7373225;19;20249;-72
2023/05/07 07:04:47;;;;;;;3.35;2.13;;;18.90;1.00;;;;;;7393745;19;20027;-73
2023/05/07 07:07:17;;;;;;;3.00;2.25;;;18.80;1.00;;;;;;7372512;19;20011;-74
2023/05/07 07:09:52;;;;;;;5.30;2.58;;;19.30;1.00;;;;;;7370214;19;20489;-73
2023/05/07 07:12:24;;;;;;;3.05;2.22;;;19.20;1.00;;;;;;7373141;19;20022;-73
2023/05/07 07:14:54;;;;;;;2.33;2.03;;;19.00;1.00;;;;;;7372796;19;20736;-73
2023/05/07 07:17:24;;;;;;;2.85;2.08;;;19.40;1.00;;;;;;7373847;19;20439;-73
2023/05/07 07:19:54;;;;;;;2.90;2.10;;;19.90;1.00;;;;;;7393837;19;20498;-73
2023/05/07 07:22:24;;;;;;;2.47;2.00;;;20.30;1.00;;;;;;7372598;19;19999;-73
2023/05/07 07:24:56;;;;;;;3.05;2.40;;;19.90;1.00;;;;;;7370487;19;20002;-73
2023/05/07 07:27:26;;;;;;;3.40;2.60;;;19.90;1.00;;;;;;7371773;19;20006;-73
2023/05/07 07:29:56;;;;;;;5.47;2.35;;;19.60;1.00;;;;;;7371274;19;20010;-73
2023/05/07 07:32:26;;;;;;;2.40;2.20;;;19.00;1.00;;;;;;7371345;19;20007;-73
2023/05/07 07:34:56;;;;;;;5.28;2.35;;;19.70;1.00;;;;;;7393944;19;20019;-73
2023/05/07 07:37:26;;;;;;;3.00;2.28;;;19.50;1.00;;;;;;7373102;19;20034;-74
2023/05/07 07:39:58;;;;;;;3.58;2.20;;;19.00;1.00;;;;;;7369449;19;20025;-73
2023/05/07 07:42:29;;;;;;;2.90;2.20;;;19.60;1.00;;;;;;7371168;19;20014;-74
2023/05/07 07:44:59;;;;;;;3.67;2.58;;;19.90;1.00;;;;;;7371796;19;20014;-72
2023/05/07 07:47:29;;;;;;;6.00;2.50;;;19.70;1.00;;;;;;7372382;19;20007;-72
2023/05/07 07:49:59;;;;;;;3.42;2.55;;;19.90;1.00;;;;;;7392621;19;20491;-73
2023/05/07 07:52:28;;;;;;;4.75;2.72;;;19.90;1.00;;;;;;7371865;19;20002;-73
2023/05/07 07:55:01;;;;;;;4.43;2.67;;;19.80;1.00;;;;;;7369884;19;20025;-73
2023/05/07 07:57:32;;;;;;;4.53;2.47;;;19.60;1.00;;;;;;7372047;19;20011;-73
2023/05/07 08:00:02;;;;;;;3.50;2.85;;;19.70;1.00;;;;;;7369144;19;20082;-74
2023/05/07 08:02:32;;;;;;;3.85;2.30;;;19.60;1.00;;;;;;7371649;19;20014;-73
2023/05/07 08:05:02;;;;;;;3.03;2.47;;;19.50;1.00;;;;;;7393271;19;20018;-73
2023/05/07 08:07:32;;;;;;;4.15;2.70;;;19.30;1.00;;;;;;7371693;19;20449;-72
2023/05/07 08:10:04;;;;;;;3.47;2.55;;;19.40;1.00;;;;;;7370068;19;20015;-73
2023/05/07 08:12:34;;;;;;;3.65;2.30;;;19.40;1.00;;;;;;7372645;19;20015;-72
2023/05/07 08:15:05;;;;;;;5.22;2.63;;;19.30;1.00;;;;;;7371018;19;20037;-71
2023/05/07 08:17:35;;;;;;;3.45;2.20;;;19.20;1.00;;;;;;7370519;19;20035;-72
2023/05/07 08:20:06;;;;;;;8.25;2.70;;;19.50;1.00;;;;;;7369723;19;20015;-72
2023/05/07 08:22:36;;;;;;;4.15;2.50;;;19.70;1.00;;;;;;7390603;19;20059;-73
2023/05/07 08:25:10;;;;;;;4.18;2.45;;;19.70;1.00;;;;;;7369576;19;20053;-73
2023/05/07 08:27:40;;;;;;;2.90;2.38;;;19.70;1.00;;;;;;7369780;19;20021;-73
2023/05/07 08:30:11;;;;;;;4.68;2.25;;;19.80;1.00;;;;;;7370615;19;20018;-73
2023/05/07 08:32:41;;;;;;;5.63;2.63;;;20.00;1.00;;;;;;7369045;19;20027;-72
2023/05/07 08:35:12;;;;;;;4.03;2.50;;;19.80;1.00;;;;;;7369561;19;20010;-72
2023/05/07 08:37:42;;;;;;;5.03;3.13;;;19.80;1.00;;;;;;7392797;19;20391;-72
2023/05/07 08:40:14;;;;;;;4.55;2.67;;;19.90;1.00;;;;;;7368225;19;20026;-73
2023/05/07 08:42:47;;;;;;;4.15;2.25;;;20.20;1.00;;;;;;7367973;19;20109;-72
2023/05/07 08:45:18;;;;;;;4.35;3.00;;;20.30;1.00;;;;;;7370368;19;20010;-72
2023/05/07 08:47:53;;;;;;;4.95;2.60;;;20.40;1.00;;;;;;7370050;19;20078;-72
2023/05/07 08:50:23;;;;;;;2.50;2.30;;;20.50;1.00;;;;;;7368923;19;20110;-73
2023/05/07 08:52:53;;;;;;;3.00;2.70;;;21.20;1.00;;;;;;7390883;19;20026;-73
2023/05/07 08:55:27;;;;;;;3.47;2.33;;;21.30;1.00;;;;;;7369581;19;20019;-73
2023/05/07 08:57:57;;;;;;;3.42;2.53;;;21.80;1.00;;;;;;7369186;19;20010;-74
2023/05/07 09:00:27;;;;;;;4.03;2.67;;;22.00;1.00;;;;;;7368461;19;20022;-74
2023/05/07 09:02:57;;;;;;;4.53;2.50;;;22.00;1.00;;;;;;7368851;19;20015;-74
2023/05/07 09:05:27;;;;;;;4.85;2.95;;;21.90;1.00;;;;;;7369229;19;20034;-74
2023/05/07 09:07:57;;;;;;;6.55;2.75;;;22.00;1.00;;;;;;7391369;19;20022;-74
2023/05/07 09:10:29;;;;;;;2.83;2.53;;;21.90;1.00;;;;;;7367016;19;20042;-74
2023/05/07 09:12:59;;;;;;;4.85;2.97;;;22.00;1.00;;;;;;7367354;19;20015;-72
2023/05/07 09:15:30;;;;;;;3.47;2.90;;;21.90;1.00;;;;;;7370001;19;20355;-72
2023/05/07 09:18:03;;;;;;;4.50;3.25;;;21.60;1.00;;;;;;7368139;19;20105;-73
2023/05/07 09:20:34;;;;;;;5.70;3.40;;;21.50;1.00;;;;;;7368262;19;20505;-73
2023/05/07 09:23:04;;;;;;;4.15;2.88;;;21.90;1.00;;;;;;7372789;19;20006;-73
2023/05/07 09:25:38;;;;;;;4.13;2.75;;;22.10;1.00;;;;;;7391863;19;20074;-73
2023/05/07 09:28:10;;;;;;;3.95;2.72;;;22.40;1.00;;;;;;7367986;19;20022;-73
2023/05/07 09:30:39;;;;;;;5.13;2.70;;;23.00;1.00;;;;;;7367303;19;20151;-74
2023/05/07 09:33:09;;;;;;;3.00;2.80;;;22.70;1.00;;;;;;7367801;19;20030;-73
2023/05/07 09:35:40;;;;;;;2.65;2.40;;;22.60;1.00;;;;;;7369328;19;20010;-73
2023/05/07 09:38:10;;;;;;;3.67;2.72;;;22.40;1.00;;;;;;7369465;19;20072;-74
2023/05/07 09:40:43;;;;;;;3.53;2.70;;;22.90;1.00;;;;;;7388551;19;20010;-73
2023/05/07 09:43:14;;;;;;;3.15;2.45;;;22.70;1.00;;;;;;7366705;19;20090;-73
2023/05/07 09:45:44;;;;;;;2.92;2.50;;;22.60;1.00;;;;;;7366443;19;20006;-72
2023/05/07 09:48:16;;;;;;;4.07;2.60;;;22.60;1.00;;;;;;7368656;19;20006;-73
2023/05/07 09:50:52;;;;;;;3.45;2.72;;;22.90;1.00;;;;;;7366295;19;20006;-73
2023/05/07 09:53:22;;;;;;;3.30;3.00;;;22.50;1.00;;;;;;7365198;19;20347;-72
2023/05/07 09:55:55;;;;;;;4.28;2.83;;;22.70;1.00;;;;;;7389875;19;20074;-73
2023/05/07 09:58:26;;;;;;;3.20;2.53;;;22.40;1.00;;;;;;7367695;19;20249;-74
2023/05/07 10:00:56;;;;;;;2.90;2.58;;;22.90;1.00;;;;;;7365520;19;20058;-74
2023/05/07 10:03:30;;;;;;;3.40;2.67;;;22.80;1.00;;;;;;7365496;19;20478;-72
2023/05/07 10:06:01;;;;;;;6.10;2.80;;;22.70;1.00;;;;;;7365092;19;20086;-73
2023/05/07 10:08:33;;;;;;;3.00;2.80;;;22.90;1.00;;;;;;7366635;19;20017;-73
2023/05/07 10:11:06;;;;;;;5.05;2.80;;;23.20;1.00;;;;;;7382261;19;20031;-74
2023/05/07 10:13:37;;;;;;;2.85;2.63;;;23.50;1.00;;;;;;7386350;19;20466;-73
2023/05/07 10:16:08;;;;;;;3.15;2.85;;;23.30;1.00;;;;;;7367152;19;20013;-73
2023/05/07 10:18:39;;;;;;;3.08;2.60;;;23.50;1.00;;;;;;7367122;19;20015;-72
2023/05/07 10:21:12;;;;;;;3.75;2.53;;;23.00;1.00;;;;;;7366592;19;20011;-74
2023/05/07 10:23:43;;;;;;;4.75;2.33;;;23.00;1.00;;;;;;7372613;19;20010;-73
2023/05/07 10:26:17;;;;;;;2.53;2.28;;;23.20;1.00;;;;;;7375676;19;20023;-73
2023/05/07 10:28:51;;;;;;;5.53;2.28;;;23.30;1.00;;;;;;7396052;19;20011;-73
2023/05/07 10:31:47;;;;;;;4.90;2.50;;;23.10;1.00;;;;;;7373617;19;20014;-73
2023/05/07 10:34:22;;;;;;;3.38;2.58;;;23.30;1.00;;;;;;7373334;19;20006;-73
2023/05/07 10:36:53;;;;;;;3.40;2.75;;;23.50;1.00;;;;;;7374922;19;20472;-73
2023/05/07 10:39:23;;;;;;;3.65;2.63;;;23.00;1.00;;;;;;7373347;19;20014;-74
2023/05/07 10:41:56;;;;;;;4.32;2.35;;;23.20;1.00;;;;;;7373987;19;20063;-74
2023/05/07 10:44:29;;;;;;;2.75;2.15;;;23.60;1.00;;;;;;7373777;19;20014;-74
2023/05/07 10:47:10;;;;;;;2.85;2.63;;;23.50;1.00;;;;;;7396035;19;20038;-72
2023/05/07 10:50:15;;;;;;;2.95;2.60;;;23.50;1.00;;;;;;7371594;19;20014;-73
2023/05/07 10:52:45;;;;;;;3.15;2.85;;;23.10;1.00;;;;;;7373070;19;20652;-73
2023/05/07 10:55:26;;;;;;;3.95;2.50;;;23.20;1.00;;;;;;7372509;19;20010;-73
2023/05/07 10:58:19;;;;;;;4.50;2.38;;;23.20;1.00;;;;;;7373892;19;20018;-74
2023/05/07 11:01:03;;;;;;;2.97;2.22;;;23.50;1.00;;;;;;7372014;19;20015;-73
2023/05/07 11:03:33;;;;;;;2.70;2.50;;;23.70;1.00;;;;;;7372420;19;20408;-73
2023/05/07 11:06:14;;;;;;;3.78;2.70;;;23.60;1.00;;;;;;7373932;19;20062;-73
2023/05/07 11:08:57;;;;;;;3.45;1.98;;;23.50;1.00;;;;;;7373204;19;20014;-74
2023/05/07 11:11:57;;;;;;;6.68;2.80;;;23.30;1.00;;;;;;7373424;19;20018;-73
2023/05/07 11:17:29;;;;;;;3.42;2.63;;;23.00;1.00;;;;;;7403463;19;20294;-73
2023/05/07 11:20:00;;;;;;;3.10;2.38;;;23.10;1.00;;;;;;7424451;19;20070;-73
2023/05/07 11:22:41;;;;;;;5.05;2.30;;;23.10;1.00;;;;;;7403925;19;20018;-73
2023/05/07 11:25:11;;;;;;;2.40;2.08;;;23.20;1.00;;;;;;7403449;19;20010;-73
2023/05/07 11:27:41;;;;;;;3.47;2.38;;;23.50;1.00;;;;;;7405347;19;20015;-73
2023/05/07 11:30:12;;;;;;;2.90;2.03;;;23.40;1.00;;;;;;7402421;19;20006;-74
2023/05/07 11:32:45;;;;;;;3.25;2.20;;;23.40;1.00;;;;;;7403373;19;20015;-74
2023/05/07 11:35:16;;;;;;;4.32;2.33;;;23.40;1.00;;;;;;7402971;19;20374;-73
2023/05/07 11:37:48;;;;;;;3.15;2.35;;;23.40;1.00;;;;;;7427277;19;20347;-73
2023/05/07 11:40:18;;;;;;;2.60;2.22;;;23.20;1.00;;;;;;7400454;19;20403;-74
2023/05/07 11:42:47;;;;;;;4.20;2.20;;;23.10;1.00;;;;;;7401862;19;20368;-74
2023/05/07 11:45:26;;;;;;;2.72;2.10;;;23.20;1.00;;;;;;7402070;19;20009;-73
2023/05/07 11:47:59;;;;;;;6.35;2.50;;;23.30;1.00;;;;;;7401986;19;20026;-73
2023/05/07 11:50:29;;;;;;;3.08;1.92;;;23.40;1.00;;;;;;7399697;19;20026;-73
2023/05/07 11:52:59;;;;;;;5.75;2.33;;;23.40;1.00;;;;;;7423685;19;20011;-73
2023/05/07 11:55:28;;;;;;;1.98;1.70;;;23.60;1.00;;;;;;7402036;19;20347;-73
2023/05/07 11:57:59;;;;;;;3.10;1.85;;;23.50;1.00;;;;;;7402936;19;20014;-73
2023/05/07 12:00:29;;;;;;;3.78;1.88;;;23.40;1.00;;;;;;7401230;19;20010;-74
2023/05/07 12:03:06;;;;;;;2.75;1.45;;;23.50;1.00;;;;;;7401187;19;20018;-74
2023/05/07 12:05:37;;;;;;;2.70;1.48;;;23.60;1.00;;;;;;7401832;19;20066;-74
2023/05/07 12:08:07;;;;;;;2.05;1.70;;;23.80;1.00;;;;;;7402905;19;20467;-73
2023/05/07 12:10:37;;;;;;;4.55;2.17;;;23.70;1.00;;;;;;7421534;19;20113;-73
2023/05/07 12:13:17;;;;;;;3.58;1.60;;;23.90;1.00;;;;;;7400497;19;20035;-74
2023/05/07 12:15:47;;;;;;;2.03;1.70;;;23.70;1.00;;;;;;7402357;19;20007;-73
2023/05/07 12:18:20;;;;;;;1.92;1.70;;;23.90;1.00;;;;;;7401517;19;20007;-73
2023/05/07 12:20:51;;;;;;;3.22;2.00;;;23.80;1.00;;;;;;7400647;19;20609;-74
2023/05/07 12:23:21;;;;;;;2.42;1.50;;;23.80;1.00;;;;;;7401524;19;20404;-74
2023/05/07 12:25:51;;;;;;;3.97;2.00;;;23.80;1.00;;;;;;7425071;19;20100;-73
2023/05/07 12:28:22;;;;;;;2.05;1.60;;;23.80;1.00;;;;;;7378202;19;20077;-73
2023/05/07 12:30:53;;;;;;;3.30;2.00;;;23.60;1.00;;;;;;7373034;19;20031;-74
2023/05/07 12:33:30;;;;;;;4.05;2.03;;;23.70;1.00;;;;;;7370611;19;20538;-73
2023/05/07 12:36:05;;;;;;;3.17;1.95;;;23.80;1.00;;;;;;7373585;19;20010;-73
2023/05/07 12:38:40;;;;;;;2.63;1.63;;;23.90;1.00;;;;;;7372647;19;20014;-73
2023/05/07 12:41:12;;;;;;;3.08;1.85;;;24.00;1.00;;;;;;7370878;19;21416;-74
2023/05/07 12:43:42;;;;;;;2.05;1.85;;;24.00;1.00;;;;;;7391182;19;20011;-74
2023/05/07 12:46:13;;;;;;;2.92;1.90;;;23.90;1.00;;;;;;7373118;19;20027;-75
2023/05/07 12:48:48;;;;;;;2.20;1.90;;;23.80;1.00;;;;;;7372239;19;20082;-73
2023/05/07 12:51:18;;;;;;;2.50;1.60;;;23.80;1.00;;;;;;7371337;19;20010;-74
2023/05/07 12:53:48;;;;;;;2.42;1.50;;;23.90;1.00;;;;;;7370428;19;20470;-74
2023/05/07 12:56:18;;;;;;;2.40;1.83;;;23.80;1.00;;;;;;7373513;19;20466;-74
2023/05/07 12:58:51;;;;;;;1.80;1.60;;;23.80;1.00;;;;;;7394673;19;20394;-74
2023/05/07 13:01:23;;;;;;;1.60;1.50;;;23.70;1.00;;;;;;7371826;19;20014;-74
2023/05/07 13:03:56;;;;;;;4.10;2.10;;;23.70;1.00;;;;;;7370630;19;20014;-74
2023/05/07 13:06:26;;;;;;;2.42;2.22;;;23.40;1.00;;;;;;7373485;19;20022;-74
2023/05/07 13:08:56;;;;;;;4.78;2.50;;;22.70;1.00;;;;;;7371148;19;20038;-74
2023/05/07 13:11:26;;;;;;;2.97;2.20;;;22.60;1.00;;;;;;7371674;19;20014;-74
2023/05/07 13:13:55;;;;;;;2.72;2.13;;;22.30;1.00;;;;;;7394898;19;20019;-74
2023/05/07 13:16:25;;;;;;;2.20;2.00;;;21.60;1.00;;;;;;7371799;19;20027;-74
2023/05/07 13:18:58;;;;;;;8.23;2.65;;;21.20;1.00;;;;;;7371023;19;20014;-74
2023/05/07 13:21:30;;;;;;;2.25;1.95;;;21.00;1.00;;;;;;7371360;19;20022;-74